sensor_id;sensor_type;location;lat;lon;timestamp;temperature;humidity
44111;DHT22;29774;52.664;5.074;2023-02-01T00:01:42;8.90;72.80
44111;DHT22;29774;52.664;5.074;2023-02-01T00:04:08;8.80;73.00
44111;DHT22;29774;52.664;5.074;2023-02-01T00:06:33;9.00;75.10
44111;DHT22;29774;52.664;5.074;2023-02-01T00:08:59;8.80;72.60
44111;DHT22;29774;52.664;5.074;2023-02-01T00:11:25;8.90;75.30
44111;DHT22;29774;52.664;5.074;2023-02-01T00:13:51;9.10;76.10
44111;DHT22;29774;52.664;5.074;2023-02-01T00:16:20;9.10;74.60
44111;DHT22;29774;52.664;5.074;2023-02-01T00:18:47;9.00;74.40
44111;DHT22;29774;52.664;5.074;2023-02-01T00:21:15;8.90;73.50
44111;DHT22;29774;52.664;5.074;2023-02-01T00:23:41;9.00;76.00
44111;DHT22;29774;52.664;5.074;2023-02-01T00:26:11;8.90;74.70
44111;DHT22;29774;52.664;5.074;2023-02-01T00:28:39;8.80;74.50
44111;DHT22;29774;52.664;5.074;2023-02-01T00:31:05;8.90;77.00
44111;DHT22;29774;52.664;5.074;2023-02-01T00:33:31;9.20;77.20
44111;DHT22;29774;52.664;5.074;2023-02-01T00:35:58;9.30;77.00
44111;DHT22;29774;52.664;5.074;2023-02-01T00:38:28;9.10;74.10
44111;DHT22;29774;52.664;5.074;2023-02-01T00:40:54;9.30;76.30
44111;DHT22;29774;52.664;5.074;2023-02-01T00:43:20;9.40;76.80
44111;DHT22;29774;52.664;5.074;2023-02-01T00:45:46;9.40;75.10
44111;DHT22;29774;52.664;5.074;2023-02-01T00:48:12;9.40;74.00
44111;DHT22;29774;52.664;5.074;2023-02-01T00:50:44;9.30;73.90
44111;DHT22;29774;52.664;5.074;2023-02-01T00:53:11;9.20;73.30
44111;DHT22;29774;52.664;5.074;2023-02-01T00:55:36;9.30;74.90
44111;DHT22;29774;52.664;5.074;2023-02-01T00:58:03;9.00;72.90
44111;DHT22;29774;52.664;5.074;2023-02-01T01:00:32;9.20;76.10
44111;DHT22;29774;52.664;5.074;2023-02-01T01:02:57;9.30;74.10
44111;DHT22;29774;52.664;5.074;2023-02-01T01:05:23;9.30;75.40
44111;DHT22;29774;52.664;5.074;2023-02-01T01:07:49;9.30;74.70
44111;DHT22;29774;52.664;5.074;2023-02-01T01:10:15;9.40;76.00
44111;DHT22;29774;52.664;5.074;2023-02-01T01:12:41;9.30;74.30
44111;DHT22;29774;52.664;5.074;2023-02-01T01:15:07;9.30;74.90
44111;DHT22;29774;52.664;5.074;2023-02-01T01:17:33;9.30;74.90
44111;DHT22;29774;52.664;5.074;2023-02-01T01:19:58;9.40;75.30
44111;DHT22;29774;52.664;5.074;2023-02-01T01:22:24;9.30;75.60
44111;DHT22;29774;52.664;5.074;2023-02-01T01:24:50;9.50;76.10
44111;DHT22;29774;52.664;5.074;2023-02-01T01:27:15;9.70;75.80
44111;DHT22;29774;52.664;5.074;2023-02-01T01:29:41;9.70;75.20
44111;DHT22;29774;52.664;5.074;2023-02-01T01:32:06;9.70;74.90
44111;DHT22;29774;52.664;5.074;2023-02-01T01:34:32;9.50;75.00
44111;DHT22;29774;52.664;5.074;2023-02-01T01:36:58;9.40;75.70
44111;DHT22;29774;52.664;5.074;2023-02-01T01:39:23;9.50;75.40
44111;DHT22;29774;52.664;5.074;2023-02-01T01:41:49;9.40;74.70
44111;DHT22;29774;52.664;5.074;2023-02-01T01:47:18;9.40;75.10
44111;DHT22;29774;52.664;5.074;2023-02-01T01:49:43;9.50;75.50
44111;DHT22;29774;52.664;5.074;2023-02-01T01:52:09;9.40;75.00
44111;DHT22;29774;52.664;5.074;2023-02-01T01:54:39;9.30;75.00
44111;DHT22;29774;52.664;5.074;2023-02-01T01:57:32;9.10;73.20
44111;DHT22;29774;52.664;5.074;2023-02-01T02:00:08;9.20;75.70
44111;DHT22;29774;52.664;5.074;2023-02-01T02:02:36;9.40;76.80
44111;DHT22;29774;52.664;5.074;2023-02-01T02:05:02;9.30;74.50
44111;DHT22;29774;52.664;5.074;2023-02-01T02:07:33;9.30;75.80
44111;DHT22;29774;52.664;5.074;2023-02-01T02:10:01;9.50;77.30
44111;DHT22;29774;52.664;5.074;2023-02-01T02:12:28;9.40;75.10
44111;DHT22;29774;52.664;5.074;2023-02-01T02:14:54;9.50;76.20
44111;DHT22;29774;52.664;5.074;2023-02-01T02:20:36;9.50;76.50
44111;DHT22;29774;52.664;5.074;2023-02-01T02:28:42;9.10;74.90
44111;DHT22;29774;52.664;5.074;2023-02-01T02:31:30;8.90;74.80
44111;DHT22;29774;52.664;5.074;2023-02-01T02:37:29;8.90;74.80
44111;DHT22;29774;52.664;5.074;2023-02-01T02:40:14;8.80;74.60
44111;DHT22;29774;52.664;5.074;2023-02-01T02:42:58;8.80;75.80
44111;DHT22;29774;52.664;5.074;2023-02-01T02:49:11;8.80;75.70
44111;DHT22;29774;52.664;5.074;2023-02-01T02:51:56;8.90;76.60
44111;DHT22;29774;52.664;5.074;2023-02-01T02:54:46;9.10;76.40
44111;DHT22;29774;52.664;5.074;2023-02-01T02:57:38;9.00;75.50
44111;DHT22;29774;52.664;5.074;2023-02-01T03:00:28;9.30;77.50
44111;DHT22;29774;52.664;5.074;2023-02-01T03:03:13;9.40;77.30
44111;DHT22;29774;52.664;5.074;2023-02-01T03:05:57;9.50;76.80
44111;DHT22;29774;52.664;5.074;2023-02-01T03:08:29;9.30;75.70
44111;DHT22;29774;52.664;5.074;2023-02-01T03:11:00;9.20;75.40
44111;DHT22;29774;52.664;5.074;2023-02-01T03:18:42;9.40;75.80
44111;DHT22;29774;52.664;5.074;2023-02-01T03:21:14;9.60;78.20
44111;DHT22;29774;52.664;5.074;2023-02-01T03:23:42;9.50;76.50
44111;DHT22;29774;52.664;5.074;2023-02-01T03:26:13;9.50;77.40
44111;DHT22;29774;52.664;5.074;2023-02-01T03:28:45;9.40;75.70
44111;DHT22;29774;52.664;5.074;2023-02-01T03:31:13;9.30;74.40
44111;DHT22;29774;52.664;5.074;2023-02-01T03:33:39;9.30;75.40
44111;DHT22;29774;52.664;5.074;2023-02-01T03:36:17;9.30;75.90
44111;DHT22;29774;52.664;5.074;2023-02-01T03:39:09;9.60;78.10
44111;DHT22;29774;52.664;5.074;2023-02-01T03:41:40;9.70;76.80
44111;DHT22;29774;52.664;5.074;2023-02-01T03:44:14;9.80;76.90
44111;DHT22;29774;52.664;5.074;2023-02-01T03:46:49;9.50;74.60
44111;DHT22;29774;52.664;5.074;2023-02-01T03:49:54;9.40;75.40
44111;DHT22;29774;52.664;5.074;2023-02-01T03:54:53;9.20;76.30
44111;DHT22;29774;52.664;5.074;2023-02-01T03:57:25;9.20;76.70
44111;DHT22;29774;52.664;5.074;2023-02-01T03:59:52;9.50;77.30
44111;DHT22;29774;52.664;5.074;2023-02-01T04:02:18;9.70;77.10
44111;DHT22;29774;52.664;5.074;2023-02-01T04:04:43;9.70;76.50
44111;DHT22;29774;52.664;5.074;2023-02-01T04:07:09;9.60;76.40
44111;DHT22;29774;52.664;5.074;2023-02-01T04:09:35;9.40;74.40
44111;DHT22;29774;52.664;5.074;2023-02-01T04:12:00;9.70;76.90
44111;DHT22;29774;52.664;5.074;2023-02-01T04:14:26;9.90;77.90
44111;DHT22;29774;52.664;5.074;2023-02-01T04:16:51;9.70;74.40
44111;DHT22;29774;52.664;5.074;2023-02-01T04:19:17;9.80;77.30
44111;DHT22;29774;52.664;5.074;2023-02-01T04:21:43;10.00;76.50
44111;DHT22;29774;52.664;5.074;2023-02-01T04:24:08;9.80;75.90
44111;DHT22;29774;52.664;5.074;2023-02-01T04:26:34;10.00;75.80
44111;DHT22;29774;52.664;5.074;2023-02-01T04:29:00;9.70;73.50
44111;DHT22;29774;52.664;5.074;2023-02-01T04:31:25;9.70;75.10
44111;DHT22;29774;52.664;5.074;2023-02-01T04:33:52;9.90;77.30
44111;DHT22;29774;52.664;5.074;2023-02-01T04:36:19;9.80;74.70
44111;DHT22;29774;52.664;5.074;2023-02-01T04:38:51;9.70;74.60
44111;DHT22;29774;52.664;5.074;2023-02-01T04:41:17;10.00;76.10
44111;DHT22;29774;52.664;5.074;2023-02-01T04:43:45;10.00;76.40
44111;DHT22;29774;52.664;5.074;2023-02-01T04:46:11;10.00;76.10
44111;DHT22;29774;52.664;5.074;2023-02-01T04:48:37;10.00;76.60
44111;DHT22;29774;52.664;5.074;2023-02-01T04:51:02;10.00;75.50
44111;DHT22;29774;52.664;5.074;2023-02-01T04:53:28;10.20;76.80
44111;DHT22;29774;52.664;5.074;2023-02-01T04:55:55;10.00;76.30
44111;DHT22;29774;52.664;5.074;2023-02-01T04:58:20;10.10;77.30
44111;DHT22;29774;52.664;5.074;2023-02-01T05:00:46;9.90;74.90
44111;DHT22;29774;52.664;5.074;2023-02-01T05:03:12;9.70;74.60
44111;DHT22;29774;52.664;5.074;2023-02-01T05:05:38;9.70;74.20
44111;DHT22;29774;52.664;5.074;2023-02-01T05:08:03;9.70;76.90
44111;DHT22;29774;52.664;5.074;2023-02-01T05:10:29;9.90;76.90
44111;DHT22;29774;52.664;5.074;2023-02-01T05:12:54;9.70;76.00
44111;DHT22;29774;52.664;5.074;2023-02-01T05:15:39;9.70;74.40
44111;DHT22;29774;52.664;5.074;2023-02-01T05:18:04;9.70;75.40
44111;DHT22;29774;52.664;5.074;2023-02-01T05:20:30;9.80;76.70
44111;DHT22;29774;52.664;5.074;2023-02-01T05:22:55;9.80;77.10
44111;DHT22;29774;52.664;5.074;2023-02-01T05:25:21;9.80;76.30
44111;DHT22;29774;52.664;5.074;2023-02-01T05:27:47;9.70;75.90
44111;DHT22;29774;52.664;5.074;2023-02-01T05:30:12;9.70;75.60
44111;DHT22;29774;52.664;5.074;2023-02-01T05:32:38;9.70;75.40
44111;DHT22;29774;52.664;5.074;2023-02-01T05:35:04;9.80;77.30
44111;DHT22;29774;52.664;5.074;2023-02-01T05:37:30;9.90;76.70
44111;DHT22;29774;52.664;5.074;2023-02-01T05:39:55;9.90;78.00
44111;DHT22;29774;52.664;5.074;2023-02-01T05:42:21;9.70;75.20
44111;DHT22;29774;52.664;5.074;2023-02-01T05:44:46;9.70;75.20
44111;DHT22;29774;52.664;5.074;2023-02-01T05:47:12;9.80;76.10
44111;DHT22;29774;52.664;5.074;2023-02-01T05:49:38;9.70;76.40
44111;DHT22;29774;52.664;5.074;2023-02-01T05:52:04;9.70;77.40
44111;DHT22;29774;52.664;5.074;2023-02-01T05:54:30;9.70;75.50
44111;DHT22;29774;52.664;5.074;2023-02-01T05:56:55;9.80;77.00
44111;DHT22;29774;52.664;5.074;2023-02-01T05:59:21;9.70;76.20
44111;DHT22;29774;52.664;5.074;2023-02-01T06:01:46;9.80;76.80
44111;DHT22;29774;52.664;5.074;2023-02-01T06:04:12;10.10;78.20
44111;DHT22;29774;52.664;5.074;2023-02-01T06:06:37;10.10;75.90
44111;DHT22;29774;52.664;5.074;2023-02-01T06:09:03;10.00;76.00
44111;DHT22;29774;52.664;5.074;2023-02-01T06:11:29;9.70;73.80
44111;DHT22;29774;52.664;5.074;2023-02-01T06:13:55;9.90;78.20
44111;DHT22;29774;52.664;5.074;2023-02-01T06:16:21;9.90;76.90
44111;DHT22;29774;52.664;5.074;2023-02-01T06:18:47;10.00;76.90
44111;DHT22;29774;52.664;5.074;2023-02-01T06:21:14;9.80;75.70
44111;DHT22;29774;52.664;5.074;2023-02-01T06:23:49;9.90;76.40
44111;DHT22;29774;52.664;5.074;2023-02-01T06:26:15;9.80;76.50
44111;DHT22;29774;52.664;5.074;2023-02-01T06:28:42;9.70;76.30
44111;DHT22;29774;52.664;5.074;2023-02-01T06:31:08;9.80;78.30
44111;DHT22;29774;52.664;5.074;2023-02-01T06:33:34;9.80;77.90
44111;DHT22;29774;52.664;5.074;2023-02-01T06:36:01;9.70;76.00
44111;DHT22;29774;52.664;5.074;2023-02-01T06:38:27;9.80;77.90
44111;DHT22;29774;52.664;5.074;2023-02-01T06:40:55;9.60;75.70
44111;DHT22;29774;52.664;5.074;2023-02-01T06:43:25;9.60;77.40
44111;DHT22;29774;52.664;5.074;2023-02-01T06:45:52;9.40;76.20
44111;DHT22;29774;52.664;5.074;2023-02-01T06:48:18;9.50;77.20
44111;DHT22;29774;52.664;5.074;2023-02-01T06:50:43;9.70;77.90
44111;DHT22;29774;52.664;5.074;2023-02-01T06:53:09;9.70;78.20
44111;DHT22;29774;52.664;5.074;2023-02-01T06:55:35;9.60;77.50
44111;DHT22;29774;52.664;5.074;2023-02-01T06:58:00;9.50;75.80
44111;DHT22;29774;52.664;5.074;2023-02-01T07:00:28;9.70;78.90
44111;DHT22;29774;52.664;5.074;2023-02-01T07:02:54;9.40;75.90
44111;DHT22;29774;52.664;5.074;2023-02-01T07:05:20;9.70;78.50
44111;DHT22;29774;52.664;5.074;2023-02-01T07:07:46;9.60;77.00
44111;DHT22;29774;52.664;5.074;2023-02-01T07:10:11;9.40;76.00
44111;DHT22;29774;52.664;5.074;2023-02-01T07:12:37;9.50;77.90
44111;DHT22;29774;52.664;5.074;2023-02-01T07:15:03;9.60;76.80
44111;DHT22;29774;52.664;5.074;2023-02-01T07:17:29;9.30;75.60
44111;DHT22;29774;52.664;5.074;2023-02-01T07:19:55;9.20;77.00
44111;DHT22;29774;52.664;5.074;2023-02-01T07:22:21;9.40;77.60
44111;DHT22;29774;52.664;5.074;2023-02-01T07:24:46;9.50;78.40
44111;DHT22;29774;52.664;5.074;2023-02-01T07:27:12;9.40;76.60
44111;DHT22;29774;52.664;5.074;2023-02-01T07:29:38;9.20;76.80
44111;DHT22;29774;52.664;5.074;2023-02-01T07:32:04;9.20;76.40
44111;DHT22;29774;52.664;5.074;2023-02-01T07:34:29;9.20;76.80
44111;DHT22;29774;52.664;5.074;2023-02-01T07:36:56;9.20;76.90
44111;DHT22;29774;52.664;5.074;2023-02-01T07:39:22;9.10;76.80
44111;DHT22;29774;52.664;5.074;2023-02-01T07:41:47;9.30;77.70
44111;DHT22;29774;52.664;5.074;2023-02-01T07:44:13;9.30;77.90
44111;DHT22;29774;52.664;5.074;2023-02-01T07:46:39;9.20;76.40
44111;DHT22;29774;52.664;5.074;2023-02-01T07:49:08;9.10;76.40
44111;DHT22;29774;52.664;5.074;2023-02-01T07:51:34;9.10;77.30
44111;DHT22;29774;52.664;5.074;2023-02-01T07:54:00;9.10;77.60
44111;DHT22;29774;52.664;5.074;2023-02-01T07:56:25;9.20;77.90
44111;DHT22;29774;52.664;5.074;2023-02-01T07:58:53;9.50;78.60
44111;DHT22;29774;52.664;5.074;2023-02-01T08:01:22;9.50;77.80
44111;DHT22;29774;52.664;5.074;2023-02-01T08:03:57;9.40;77.00
44111;DHT22;29774;52.664;5.074;2023-02-01T08:06:24;9.50;78.00
44111;DHT22;29774;52.664;5.074;2023-02-01T08:08:51;9.50;76.50
44111;DHT22;29774;52.664;5.074;2023-02-01T08:11:18;9.40;77.00
44111;DHT22;29774;52.664;5.074;2023-02-01T08:13:44;9.40;77.40
44111;DHT22;29774;52.664;5.074;2023-02-01T08:16:12;9.50;77.70
44111;DHT22;29774;52.664;5.074;2023-02-01T08:18:38;9.50;77.20
44111;DHT22;29774;52.664;5.074;2023-02-01T08:21:06;9.50;76.10
44111;DHT22;29774;52.664;5.074;2023-02-01T08:23:34;9.40;76.60
44111;DHT22;29774;52.664;5.074;2023-02-01T08:28:32;9.40;76.70
44111;DHT22;29774;52.664;5.074;2023-02-01T08:30:57;9.30;76.30
44111;DHT22;29774;52.664;5.074;2023-02-01T08:33:23;9.40;77.50
44111;DHT22;29774;52.664;5.074;2023-02-01T08:35:48;9.30;76.20
44111;DHT22;29774;52.664;5.074;2023-02-01T08:38:14;9.20;76.00
44111;DHT22;29774;52.664;5.074;2023-02-01T08:40:40;9.20;77.20
44111;DHT22;29774;52.664;5.074;2023-02-01T08:43:07;9.30;76.90
44111;DHT22;29774;52.664;5.074;2023-02-01T08:45:32;9.60;77.60
44111;DHT22;29774;52.664;5.074;2023-02-01T08:47:59;9.50;76.50
44111;DHT22;29774;52.664;5.074;2023-02-01T08:50:25;9.50;76.80
44111;DHT22;29774;52.664;5.074;2023-02-01T08:52:50;9.60;78.20
44111;DHT22;29774;52.664;5.074;2023-02-01T08:55:16;9.70;77.70
44111;DHT22;29774;52.664;5.074;2023-02-01T08:57:43;9.70;76.90
44111;DHT22;29774;52.664;5.074;2023-02-01T09:00:12;9.70;77.40
44111;DHT22;29774;52.664;5.074;2023-02-01T09:02:38;9.70;76.80
44111;DHT22;29774;52.664;5.074;2023-02-01T09:05:04;9.70;77.70
44111;DHT22;29774;52.664;5.074;2023-02-01T09:07:31;9.70;76.70
44111;DHT22;29774;52.664;5.074;2023-02-01T09:09:57;9.70;77.30
44111;DHT22;29774;52.664;5.074;2023-02-01T09:12:29;9.60;77.30
44111;DHT22;29774;52.664;5.074;2023-02-01T09:14:56;9.60;77.10
44111;DHT22;29774;52.664;5.074;2023-02-01T09:17:22;9.40;76.20
44111;DHT22;29774;52.664;5.074;2023-02-01T09:19:48;9.60;78.00
44111;DHT22;29774;52.664;5.074;2023-02-01T09:22:15;9.50;76.00
44111;DHT22;29774;52.664;5.074;2023-02-01T09:24:41;9.30;76.00
44111;DHT22;29774;52.664;5.074;2023-02-01T09:27:07;9.40;77.50
44111;DHT22;29774;52.664;5.074;2023-02-01T09:29:32;9.60;77.90
44111;DHT22;29774;52.664;5.074;2023-02-01T09:31:58;9.50;77.80
44111;DHT22;29774;52.664;5.074;2023-02-01T09:34:24;9.40;77.50
44111;DHT22;29774;52.664;5.074;2023-02-01T09:36:50;9.40;78.50
44111;DHT22;29774;52.664;5.074;2023-02-01T09:39:15;9.40;77.90
44111;DHT22;29774;52.664;5.074;2023-02-01T09:47:31;9.40;78.30
44111;DHT22;29774;52.664;5.074;2023-02-01T09:50:04;9.30;79.10
44111;DHT22;29774;52.664;5.074;2023-02-01T09:55:28;9.20;79.50
44111;DHT22;29774;52.664;5.074;2023-02-01T09:58:02;9.30;79.50
44111;DHT22;29774;52.664;5.074;2023-02-01T10:00:33;9.30;79.20
44111;DHT22;29774;52.664;5.074;2023-02-01T10:02:59;9.50;80.40
44111;DHT22;29774;52.664;5.074;2023-02-01T10:08:31;9.30;79.10
44111;DHT22;29774;52.664;5.074;2023-02-01T10:11:13;9.50;80.00
44111;DHT22;29774;52.664;5.074;2023-02-01T10:14:04;9.50;79.50
44111;DHT22;29774;52.664;5.074;2023-02-01T10:16:50;9.50;80.10
44111;DHT22;29774;52.664;5.074;2023-02-01T10:19:28;9.70;79.50
44111;DHT22;29774;52.664;5.074;2023-02-01T10:22:02;9.60;79.80
44111;DHT22;29774;52.664;5.074;2023-02-01T10:24:37;9.60;78.80
44111;DHT22;29774;52.664;5.074;2023-02-01T10:27:28;9.70;79.90
44111;DHT22;29774;52.664;5.074;2023-02-01T10:29:59;9.70;79.00
44111;DHT22;29774;52.664;5.074;2023-02-01T10:32:32;9.80;79.60
44111;DHT22;29774;52.664;5.074;2023-02-01T10:35:02;9.60;78.60
44111;DHT22;29774;52.664;5.074;2023-02-01T10:37:32;9.60;79.40
44111;DHT22;29774;52.664;5.074;2023-02-01T10:40:12;9.70;79.30
44111;DHT22;29774;52.664;5.074;2023-02-01T10:42:40;9.70;78.50
44111;DHT22;29774;52.664;5.074;2023-02-01T10:45:06;9.80;79.80
44111;DHT22;29774;52.664;5.074;2023-02-01T10:47:32;9.90;78.50
44111;DHT22;29774;52.664;5.074;2023-02-01T10:53:01;9.60;76.20
44111;DHT22;29774;52.664;5.074;2023-02-01T10:55:34;9.60;76.70
44111;DHT22;29774;52.664;5.074;2023-02-01T10:58:06;9.70;76.60
44111;DHT22;29774;52.664;5.074;2023-02-01T11:00:47;10.00;76.00
44111;DHT22;29774;52.664;5.074;2023-02-01T11:03:45;10.10;76.10
44111;DHT22;29774;52.664;5.074;2023-02-01T11:06:32;10.10;75.50
44111;DHT22;29774;52.664;5.074;2023-02-01T11:09:01;10.30;77.20
44111;DHT22;29774;52.664;5.074;2023-02-01T11:11:57;10.40;75.80
44111;DHT22;29774;52.664;5.074;2023-02-01T11:14:32;10.40;76.10
44111;DHT22;29774;52.664;5.074;2023-02-01T11:17:02;10.60;76.20
44111;DHT22;29774;52.664;5.074;2023-02-01T11:19:36;10.70;75.80
44111;DHT22;29774;52.664;5.074;2023-02-01T11:22:01;10.70;76.20
44111;DHT22;29774;52.664;5.074;2023-02-01T11:24:35;10.70;76.50
44111;DHT22;29774;52.664;5.074;2023-02-01T11:27:05;10.60;75.70
44111;DHT22;29774;52.664;5.074;2023-02-01T11:29:46;10.50;76.10
44111;DHT22;29774;52.664;5.074;2023-02-01T11:32:15;10.50;76.60
44111;DHT22;29774;52.664;5.074;2023-02-01T11:34:55;10.50;76.20
44111;DHT22;29774;52.664;5.074;2023-02-01T11:37:30;10.60;77.20
44111;DHT22;29774;52.664;5.074;2023-02-01T11:39:58;10.60;77.10
44111;DHT22;29774;52.664;5.074;2023-02-01T11:42:25;10.60;77.10
44111;DHT22;29774;52.664;5.074;2023-02-01T11:44:51;10.70;77.00
44111;DHT22;29774;52.664;5.074;2023-02-01T11:47:41;10.60;77.60
44111;DHT22;29774;52.664;5.074;2023-02-01T11:50:19;10.60;77.60
44111;DHT22;29774;52.664;5.074;2023-02-01T11:55:41;10.50;76.50
44111;DHT22;29774;52.664;5.074;2023-02-01T12:11:36;10.40;77.60
44111;DHT22;29774;52.664;5.074;2023-02-01T12:19:43;10.20;77.20
44111;DHT22;29774;52.664;5.074;2023-02-01T12:27:42;10.60;78.00
44111;DHT22;29774;52.664;5.074;2023-02-01T12:33:00;10.70;77.40
44111;DHT22;29774;52.664;5.074;2023-02-01T12:35:59;10.60;75.90
44111;DHT22;29774;52.664;5.074;2023-02-01T12:38:53;10.50;77.70
44111;DHT22;29774;52.664;5.074;2023-02-01T12:41:45;10.50;76.20
44111;DHT22;29774;52.664;5.074;2023-02-01T12:44:28;10.50;77.10
44111;DHT22;29774;52.664;5.074;2023-02-01T12:47:06;10.70;76.40
44111;DHT22;29774;52.664;5.074;2023-02-01T12:49:40;10.70;76.60
44111;DHT22;29774;52.664;5.074;2023-02-01T12:52:15;10.80;76.50
44111;DHT22;29774;52.664;5.074;2023-02-01T12:54:50;10.80;77.00
44111;DHT22;29774;52.664;5.074;2023-02-01T12:57:28;11.00;77.60
44111;DHT22;29774;52.664;5.074;2023-02-01T13:02:27;11.00;76.90
44111;DHT22;29774;52.664;5.074;2023-02-01T13:07:48;10.90;75.80
44111;DHT22;29774;52.664;5.074;2023-02-01T13:10:23;10.80;76.50
44111;DHT22;29774;52.664;5.074;2023-02-01T13:13:14;10.80;75.80
44111;DHT22;29774;52.664;5.074;2023-02-01T13:16:28;11.00;76.40
44111;DHT22;29774;52.664;5.074;2023-02-01T13:18:39;11.10;76.40
44111;DHT22;29774;52.664;5.074;2023-02-01T13:21:22;11.20;76.30
44111;DHT22;29774;52.664;5.074;2023-02-01T13:23:50;11.20;76.40
44111;DHT22;29774;52.664;5.074;2023-02-01T13:26:16;11.20;75.60
44111;DHT22;29774;52.664;5.074;2023-02-01T13:28:57;11.10;74.90
44111;DHT22;29774;52.664;5.074;2023-02-01T13:39:41;11.00;74.50
44111;DHT22;29774;52.664;5.074;2023-02-01T13:42:29;11.20;75.90
44111;DHT22;29774;52.664;5.074;2023-02-01T13:45:05;11.30;76.70
44111;DHT22;29774;52.664;5.074;2023-02-01T13:47:44;11.20;75.70
44111;DHT22;29774;52.664;5.074;2023-02-01T13:50:32;11.20;76.30
44111;DHT22;29774;52.664;5.074;2023-02-01T13:55:39;11.10;75.20
44111;DHT22;29774;52.664;5.074;2023-02-01T13:58:42;11.10;74.50
44111;DHT22;29774;52.664;5.074;2023-02-01T14:03:58;11.20;75.80
44111;DHT22;29774;52.664;5.074;2023-02-01T14:19:29;11.40;76.70
44111;DHT22;29774;52.664;5.074;2023-02-01T14:21:57;11.40;75.80
44111;DHT22;29774;52.664;5.074;2023-02-01T14:24:32;11.40;75.60
44111;DHT22;29774;52.664;5.074;2023-02-01T14:27:00;11.50;75.90
44111;DHT22;29774;52.664;5.074;2023-02-01T14:29:36;11.60;75.30
44111;DHT22;29774;52.664;5.074;2023-02-01T14:32:21;11.40;73.60
44111;DHT22;29774;52.664;5.074;2023-02-01T14:53:14;11.10;73.80
44111;DHT22;29774;52.664;5.074;2023-02-01T14:55:45;11.30;76.00
44111;DHT22;29774;52.664;5.074;2023-02-01T15:00:58;11.30;75.20
44111;DHT22;29774;52.664;5.074;2023-02-01T15:06:37;11.20;75.80
44111;DHT22;29774;52.664;5.074;2023-02-01T15:09:11;11.20;75.40
44111;DHT22;29774;52.664;5.074;2023-02-01T15:14:22;10.70;75.80
44111;DHT22;29774;52.664;5.074;2023-02-01T15:16:48;10.60;75.40
44111;DHT22;29774;52.664;5.074;2023-02-01T15:19:21;10.90;77.70
44111;DHT22;29774;52.664;5.074;2023-02-01T15:21:49;10.90;76.50
44111;DHT22;29774;52.664;5.074;2023-02-01T15:24:20;11.20;77.60
44111;DHT22;29774;52.664;5.074;2023-02-01T15:26:47;11.40;76.50
44111;DHT22;29774;52.664;5.074;2023-02-01T15:29:13;11.20;74.00
44111;DHT22;29774;52.664;5.074;2023-02-01T15:31:48;11.00;75.60
44111;DHT22;29774;52.664;5.074;2023-02-01T15:34:14;11.10;77.10
44111;DHT22;29774;52.664;5.074;2023-02-01T15:36:41;11.30;77.10
44111;DHT22;29774;52.664;5.074;2023-02-01T15:39:23;11.30;76.10
44111;DHT22;29774;52.664;5.074;2023-02-01T15:41:54;11.40;75.20
44111;DHT22;29774;52.664;5.074;2023-02-01T15:46:55;11.50;75.40
44111;DHT22;29774;52.664;5.074;2023-02-01T15:49:31;11.50;74.80
44111;DHT22;29774;52.664;5.074;2023-02-01T15:52:00;11.70;75.90
44111;DHT22;29774;52.664;5.074;2023-02-01T15:54:35;11.60;76.00
44111;DHT22;29774;52.664;5.074;2023-02-01T15:57:04;11.50;74.60
44111;DHT22;29774;52.664;5.074;2023-02-01T15:59:41;11.60;75.70
44111;DHT22;29774;52.664;5.074;2023-02-01T16:02:26;11.40;74.30
44111;DHT22;29774;52.664;5.074;2023-02-01T16:04:52;11.30;74.70
44111;DHT22;29774;52.664;5.074;2023-02-01T16:07:27;11.30;74.90
44111;DHT22;29774;52.664;5.074;2023-02-01T16:09:55;11.40;75.50
44111;DHT22;29774;52.664;5.074;2023-02-01T16:12:29;11.20;74.00
44111;DHT22;29774;52.664;5.074;2023-02-01T16:14:55;11.20;74.70
44111;DHT22;29774;52.664;5.074;2023-02-01T16:17:21;11.40;74.50
44111;DHT22;29774;52.664;5.074;2023-02-01T16:19:47;11.20;73.80
44111;DHT22;29774;52.664;5.074;2023-02-01T16:22:12;11.40;76.10
44111;DHT22;29774;52.664;5.074;2023-02-01T16:24:38;11.10;72.00
44111;DHT22;29774;52.664;5.074;2023-02-01T16:27:04;11.30;75.70
44111;DHT22;29774;52.664;5.074;2023-02-01T16:29:32;11.00;72.70
44111;DHT22;29774;52.664;5.074;2023-02-01T16:31:58;11.00;74.00
44111;DHT22;29774;52.664;5.074;2023-02-01T16:34:24;10.90;75.00
44111;DHT22;29774;52.664;5.074;2023-02-01T16:36:50;10.80;75.00
44111;DHT22;29774;52.664;5.074;2023-02-01T16:39:18;10.70;75.50
44111;DHT22;29774;52.664;5.074;2023-02-01T16:41:44;10.80;76.20
44111;DHT22;29774;52.664;5.074;2023-02-01T16:44:10;10.80;75.50
44111;DHT22;29774;52.664;5.074;2023-02-01T16:46:44;11.00;77.00
44111;DHT22;29774;52.664;5.074;2023-02-01T16:49:23;10.90;76.90
44111;DHT22;29774;52.664;5.074;2023-02-01T16:51:51;11.10;76.80
44111;DHT22;29774;52.664;5.074;2023-02-01T16:54:20;11.20;77.70
44111;DHT22;29774;52.664;5.074;2023-02-01T16:56:46;11.20;77.40
44111;DHT22;29774;52.664;5.074;2023-02-01T16:59:12;11.20;77.50
44111;DHT22;29774;52.664;5.074;2023-02-01T17:01:40;11.00;75.90
44111;DHT22;29774;52.664;5.074;2023-02-01T17:04:08;10.90;77.20
44111;DHT22;29774;52.664;5.074;2023-02-01T17:06:35;10.70;76.40
44111;DHT22;29774;52.664;5.074;2023-02-01T17:09:02;10.80;77.60
44111;DHT22;29774;52.664;5.074;2023-02-01T17:11:29;10.70;77.30
44111;DHT22;29774;52.664;5.074;2023-02-01T17:16:42;10.50;76.50
44111;DHT22;29774;52.664;5.074;2023-02-01T17:19:16;10.40;77.30
44111;DHT22;29774;52.664;5.074;2023-02-01T17:21:49;10.20;76.90
44111;DHT22;29774;52.664;5.074;2023-02-01T17:24:18;10.10;77.30
44111;DHT22;29774;52.664;5.074;2023-02-01T17:26:44;10.30;78.00
44111;DHT22;29774;52.664;5.074;2023-02-01T17:29:11;10.30;77.90
44111;DHT22;29774;52.664;5.074;2023-02-01T17:31:39;10.20;77.70
44111;DHT22;29774;52.664;5.074;2023-02-01T17:34:05;10.40;78.50
44111;DHT22;29774;52.664;5.074;2023-02-01T17:36:31;10.60;78.60
44111;DHT22;29774;52.664;5.074;2023-02-01T17:38:57;10.20;76.90
44111;DHT22;29774;52.664;5.074;2023-02-01T17:41:23;10.10;78.00
44111;DHT22;29774;52.664;5.074;2023-02-01T17:43:49;10.10;78.10
44111;DHT22;29774;52.664;5.074;2023-02-01T17:46:17;10.20;78.70
44111;DHT22;29774;52.664;5.074;2023-02-01T17:48:51;10.30;78.20
44111;DHT22;29774;52.664;5.074;2023-02-01T17:51:20;9.80;77.60
44111;DHT22;29774;52.664;5.074;2023-02-01T17:53:46;10.10;79.50
44111;DHT22;29774;52.664;5.074;2023-02-01T17:56:14;10.30;78.90
44111;DHT22;29774;52.664;5.074;2023-02-01T17:58:40;10.20;78.10
44111;DHT22;29774;52.664;5.074;2023-02-01T18:01:05;10.40;77.70
44111;DHT22;29774;52.664;5.074;2023-02-01T18:03:31;10.30;77.30
44111;DHT22;29774;52.664;5.074;2023-02-01T18:06:01;10.40;78.00
44111;DHT22;29774;52.664;5.074;2023-02-01T18:08:29;10.60;78.50
44111;DHT22;29774;52.664;5.074;2023-02-01T18:10:59;10.80;78.70
44111;DHT22;29774;52.664;5.074;2023-02-01T18:13:26;10.70;77.50
44111;DHT22;29774;52.664;5.074;2023-02-01T18:15:51;10.50;77.60